YCE weather

Centralia / James T. Field Memorial Aerodrome
Centralia, Ontario, Canada

Public forecast

Using degrees Celsius for public forecast. Weather courtesy of forecast.io.

METAR (pilot weather report)

Closest report is London Airport, 21.6 nm (40.0 km) SE. Retrieved 2019/05/27 00:00 UTC (33 minutes ago):

CYXU 270000Z 33009KT 15SM FEW190 FEW250 17/08 A3002 RMK AC1CI1 CI TR SLP166 DENSITY ALT 1300FT

TAF (pilot weather forecast)

Forecast is more than 12 hours old.

Closest forecast is London Airport, 21.6 nm (40.0 km) SE. Retrieved 2019/05/26 00:39 UTC (24 hours ago):

TAF CYXU 262338Z 2700/2724 33008KT P6SM FEW140 BKN190 FM270300 35005KT P6SM SKC FM270700 VRB03KT 6SM BR SKC PROB30 2707/2712 11/2SM BR FM271200 VRB03KT P6SM SKC BECMG 2714/2716 33006KT FM271700 33006KT P6SM BKN030 BECMG 2719/2721 VRB03KT RMK NXT FCST BY 270600Z